sensor_id;sensor_type;location;lat;lon;timestamp;temperature;humidity
10390;DHT22;5241;47.830;12.972;2023-09-07T00:01:06;14.00;99.90
10390;DHT22;5241;47.830;12.972;2023-09-07T00:03:32;13.90;99.90
10390;DHT22;5241;47.830;12.972;2023-09-07T00:05:57;13.90;99.90
10390;DHT22;5241;47.830;12.972;2023-09-07T00:08:23;13.90;99.90
10390;DHT22;5241;47.830;12.972;2023-09-07T00:10:50;14.00;99.90
10390;DHT22;5241;47.830;12.972;2023-09-07T00:13:16;14.00;99.90
10390;DHT22;5241;47.830;12.972;2023-09-07T00:15:42;13.90;99.90
10390;DHT22;5241;47.830;12.972;2023-09-07T00:18:08;13.90;99.90
10390;DHT22;5241;47.830;12.972;2023-09-07T00:20:34;13.90;99.90
10390;DHT22;5241;47.830;12.972;2023-09-07T00:23:00;13.80;99.90
10390;DHT22;5241;47.830;12.972;2023-09-07T00:25:26;13.80;99.90
10390;DHT22;5241;47.830;12.972;2023-09-07T00:27:52;13.70;99.90
10390;DHT22;5241;47.830;12.972;2023-09-07T00:30:17;13.70;99.90
10390;DHT22;5241;47.830;12.972;2023-09-07T00:32:43;13.80;99.90
10390;DHT22;5241;47.830;12.972;2023-09-07T00:35:09;13.80;99.90
10390;DHT22;5241;47.830;12.972;2023-09-07T00:37:34;13.70;99.90
10390;DHT22;5241;47.830;12.972;2023-09-07T00:40:00;13.70;99.90
10390;DHT22;5241;47.830;12.972;2023-09-07T00:42:25;13.70;99.90
10390;DHT22;5241;47.830;12.972;2023-09-07T00:44:51;13.70;99.90
10390;DHT22;5241;47.830;12.972;2023-09-07T00:47:17;13.60;99.90
10390;DHT22;5241;47.830;12.972;2023-09-07T00:49:43;13.70;99.90
10390;DHT22;5241;47.830;12.972;2023-09-07T00:52:09;13.60;99.90
10390;DHT22;5241;47.830;12.972;2023-09-07T00:54:36;13.50;99.90
10390;DHT22;5241;47.830;12.972;2023-09-07T00:57:04;13.60;99.90
10390;DHT22;5241;47.830;12.972;2023-09-07T00:59:32;13.50;99.90
10390;DHT22;5241;47.830;12.972;2023-09-07T01:01:57;13.50;99.90
10390;DHT22;5241;47.830;12.972;2023-09-07T01:04:23;13.40;99.90
10390;DHT22;5241;47.830;12.972;2023-09-07T01:06:56;13.40;99.90
10390;DHT22;5241;47.830;12.972;2023-09-07T01:09:26;13.40;99.90
10390;DHT22;5241;47.830;12.972;2023-09-07T01:11:53;13.30;99.90
10390;DHT22;5241;47.830;12.972;2023-09-07T01:14:19;13.30;99.90
10390;DHT22;5241;47.830;12.972;2023-09-07T01:16:45;13.30;99.90
10390;DHT22;5241;47.830;12.972;2023-09-07T01:19:11;13.40;99.90
10390;DHT22;5241;47.830;12.972;2023-09-07T01:21:38;13.30;99.90
10390;DHT22;5241;47.830;12.972;2023-09-07T01:24:08;13.30;99.90
10390;DHT22;5241;47.830;12.972;2023-09-07T01:26:37;13.20;99.90
10390;DHT22;5241;47.830;12.972;2023-09-07T01:29:06;13.20;99.90
10390;DHT22;5241;47.830;12.972;2023-09-07T01:31:36;13.10;99.90
10390;DHT22;5241;47.830;12.972;2023-09-07T01:34:03;13.10;99.90
10390;DHT22;5241;47.830;12.972;2023-09-07T01:36:29;13.00;99.90
10390;DHT22;5241;47.830;12.972;2023-09-07T01:38:55;13.00;99.90
10390;DHT22;5241;47.830;12.972;2023-09-07T01:41:21;13.00;99.90
10390;DHT22;5241;47.830;12.972;2023-09-07T01:43:46;13.10;99.90
10390;DHT22;5241;47.830;12.972;2023-09-07T01:46:12;13.00;99.90
10390;DHT22;5241;47.830;12.972;2023-09-07T01:48:37;12.90;99.90
10390;DHT22;5241;47.830;12.972;2023-09-07T01:51:03;13.00;99.90
10390;DHT22;5241;47.830;12.972;2023-09-07T01:53:28;12.90;99.90
10390;DHT22;5241;47.830;12.972;2023-09-07T01:55:54;12.80;99.90
10390;DHT22;5241;47.830;12.972;2023-09-07T01:58:21;12.70;99.90
10390;DHT22;5241;47.830;12.972;2023-09-07T02:00:47;12.70;99.90
10390;DHT22;5241;47.830;12.972;2023-09-07T02:03:12;12.70;99.90
10390;DHT22;5241;47.830;12.972;2023-09-07T02:05:39;12.70;99.90
10390;DHT22;5241;47.830;12.972;2023-09-07T02:08:04;12.80;99.90
10390;DHT22;5241;47.830;12.972;2023-09-07T02:10:30;12.80;99.90
10390;DHT22;5241;47.830;12.972;2023-09-07T02:12:56;12.70;99.90
10390;DHT22;5241;47.830;12.972;2023-09-07T02:15:23;12.70;99.90
10390;DHT22;5241;47.830;12.972;2023-09-07T02:17:49;12.60;99.90
10390;DHT22;5241;47.830;12.972;2023-09-07T02:20:14;12.60;99.90
10390;DHT22;5241;47.830;12.972;2023-09-07T02:22:40;12.40;99.90
10390;DHT22;5241;47.830;12.972;2023-09-07T02:25:06;12.40;99.90
10390;DHT22;5241;47.830;12.972;2023-09-07T02:27:35;12.30;99.90
10390;DHT22;5241;47.830;12.972;2023-09-07T02:30:01;12.40;99.90
10390;DHT22;5241;47.830;12.972;2023-09-07T02:32:27;12.40;99.90
10390;DHT22;5241;47.830;12.972;2023-09-07T02:34:53;12.40;99.90
10390;DHT22;5241;47.830;12.972;2023-09-07T02:37:18;12.30;99.90
10390;DHT22;5241;47.830;12.972;2023-09-07T02:39:44;12.30;99.90
10390;DHT22;5241;47.830;12.972;2023-09-07T02:42:09;12.20;99.90
10390;DHT22;5241;47.830;12.972;2023-09-07T02:44:35;12.20;99.90
10390;DHT22;5241;47.830;12.972;2023-09-07T02:47:01;12.30;99.90
10390;DHT22;5241;47.830;12.972;2023-09-07T02:49:26;12.30;99.90
10390;DHT22;5241;47.830;12.972;2023-09-07T02:51:52;12.20;99.90
10390;DHT22;5241;47.830;12.972;2023-09-07T02:54:18;12.10;99.90
10390;DHT22;5241;47.830;12.972;2023-09-07T02:56:44;12.10;99.90
10390;DHT22;5241;47.830;12.972;2023-09-07T02:59:09;12.10;99.90
10390;DHT22;5241;47.830;12.972;2023-09-07T03:01:35;12.00;99.90
10390;DHT22;5241;47.830;12.972;2023-09-07T03:04:00;12.10;99.90
10390;DHT22;5241;47.830;12.972;2023-09-07T03:06:26;12.00;99.90
10390;DHT22;5241;47.830;12.972;2023-09-07T03:08:51;12.20;99.90
10390;DHT22;5241;47.830;12.972;2023-09-07T03:11:20;12.20;99.90
10390;DHT22;5241;47.830;12.972;2023-09-07T03:13:45;12.10;99.90
10390;DHT22;5241;47.830;12.972;2023-09-07T03:16:11;12.10;99.90
10390;DHT22;5241;47.830;12.972;2023-09-07T03:18:36;12.10;99.90
10390;DHT22;5241;47.830;12.972;2023-09-07T03:21:02;12.10;99.90
10390;DHT22;5241;47.830;12.972;2023-09-07T03:23:29;12.00;99.90
10390;DHT22;5241;47.830;12.972;2023-09-07T03:25:56;11.90;99.90
10390;DHT22;5241;47.830;12.972;2023-09-07T03:28:21;12.00;99.90
10390;DHT22;5241;47.830;12.972;2023-09-07T03:30:47;12.00;99.90
10390;DHT22;5241;47.830;12.972;2023-09-07T03:33:13;12.00;99.90
10390;DHT22;5241;47.830;12.972;2023-09-07T03:35:38;12.00;99.90
10390;DHT22;5241;47.830;12.972;2023-09-07T03:38:06;11.90;99.90
10390;DHT22;5241;47.830;12.972;2023-09-07T03:40:31;11.80;99.90
10390;DHT22;5241;47.830;12.972;2023-09-07T03:42:57;11.80;99.90
10390;DHT22;5241;47.830;12.972;2023-09-07T03:45:22;11.80;99.90
10390;DHT22;5241;47.830;12.972;2023-09-07T03:47:48;11.80;99.90
10390;DHT22;5241;47.830;12.972;2023-09-07T03:50:14;11.70;99.90
10390;DHT22;5241;47.830;12.972;2023-09-07T03:52:40;11.60;99.90
10390;DHT22;5241;47.830;12.972;2023-09-07T03:55:06;11.60;99.90
10390;DHT22;5241;47.830;12.972;2023-09-07T03:57:32;11.70;99.90
10390;DHT22;5241;47.830;12.972;2023-09-07T03:59:58;11.60;99.90
10390;DHT22;5241;47.830;12.972;2023-09-07T04:02:24;11.50;99.90
10390;DHT22;5241;47.830;12.972;2023-09-07T04:04:51;11.50;99.90
10390;DHT22;5241;47.830;12.972;2023-09-07T04:07:16;11.50;99.90
10390;DHT22;5241;47.830;12.972;2023-09-07T04:09:43;11.50;99.90
10390;DHT22;5241;47.830;12.972;2023-09-07T04:12:09;11.50;99.90
10390;DHT22;5241;47.830;12.972;2023-09-07T04:14:34;11.40;99.90
10390;DHT22;5241;47.830;12.972;2023-09-07T04:17:00;11.40;99.90
10390;DHT22;5241;47.830;12.972;2023-09-07T04:19:26;11.50;99.90
10390;DHT22;5241;47.830;12.972;2023-09-07T04:21:51;11.50;99.90
10390;DHT22;5241;47.830;12.972;2023-09-07T04:24:17;11.40;99.90
10390;DHT22;5241;47.830;12.972;2023-09-07T04:26:43;11.40;99.90
10390;DHT22;5241;47.830;12.972;2023-09-07T04:29:08;11.40;99.90
10390;DHT22;5241;47.830;12.972;2023-09-07T04:31:34;11.40;99.90
10390;DHT22;5241;47.830;12.972;2023-09-07T04:34:00;11.30;99.90
10390;DHT22;5241;47.830;12.972;2023-09-07T04:36:26;11.40;99.90
10390;DHT22;5241;47.830;12.972;2023-09-07T04:38:51;11.30;99.90
10390;DHT22;5241;47.830;12.972;2023-09-07T04:41:17;11.30;99.90
10390;DHT22;5241;47.830;12.972;2023-09-07T04:43:43;11.40;99.90
10390;DHT22;5241;47.830;12.972;2023-09-07T04:46:13;11.50;99.90
10390;DHT22;5241;47.830;12.972;2023-09-07T04:48:39;11.50;99.90
10390;DHT22;5241;47.830;12.972;2023-09-07T04:51:09;11.40;99.90
10390;DHT22;5241;47.830;12.972;2023-09-07T04:53:36;11.30;99.90
10390;DHT22;5241;47.830;12.972;2023-09-07T04:56:03;11.40;99.90
10390;DHT22;5241;47.830;12.972;2023-09-07T04:58:29;11.40;99.90
10390;DHT22;5241;47.830;12.972;2023-09-07T05:01:00;11.30;99.90
10390;DHT22;5241;47.830;12.972;2023-09-07T05:03:26;11.30;99.90
10390;DHT22;5241;47.830;12.972;2023-09-07T05:05:53;11.30;99.90
10390;DHT22;5241;47.830;12.972;2023-09-07T05:08:18;11.30;99.90
10390;DHT22;5241;47.830;12.972;2023-09-07T05:10:44;11.30;99.90
10390;DHT22;5241;47.830;12.972;2023-09-07T05:13:09;11.20;99.90
10390;DHT22;5241;47.830;12.972;2023-09-07T05:15:35;11.40;99.90
10390;DHT22;5241;47.830;12.972;2023-09-07T05:18:00;11.50;99.90
10390;DHT22;5241;47.830;12.972;2023-09-07T05:20:26;11.50;99.90
10390;DHT22;5241;47.830;12.972;2023-09-07T05:22:55;11.50;99.90
10390;DHT22;5241;47.830;12.972;2023-09-07T05:25:22;11.40;99.90
10390;DHT22;5241;47.830;12.972;2023-09-07T05:27:48;11.50;99.90
10390;DHT22;5241;47.830;12.972;2023-09-07T05:30:14;11.50;99.90
10390;DHT22;5241;47.830;12.972;2023-09-07T05:32:39;11.60;99.90
10390;DHT22;5241;47.830;12.972;2023-09-07T05:35:07;11.60;99.90
10390;DHT22;5241;47.830;12.972;2023-09-07T05:37:32;11.70;99.90
10390;DHT22;5241;47.830;12.972;2023-09-07T05:39:58;11.80;99.90
10390;DHT22;5241;47.830;12.972;2023-09-07T05:42:23;11.80;99.90
10390;DHT22;5241;47.830;12.972;2023-09-07T05:44:51;11.90;99.90
10390;DHT22;5241;47.830;12.972;2023-09-07T05:47:16;12.10;99.90
10390;DHT22;5241;47.830;12.972;2023-09-07T05:49:43;12.20;99.90
10390;DHT22;5241;47.830;12.972;2023-09-07T05:52:08;12.40;99.90
10390;DHT22;5241;47.830;12.972;2023-09-07T05:54:34;12.50;99.90
10390;DHT22;5241;47.830;12.972;2023-09-07T05:56:59;12.60;99.90
10390;DHT22;5241;47.830;12.972;2023-09-07T05:59:25;12.70;99.90
10390;DHT22;5241;47.830;12.972;2023-09-07T06:01:50;12.80;99.90
10390;DHT22;5241;47.830;12.972;2023-09-07T06:04:16;12.80;99.90
10390;DHT22;5241;47.830;12.972;2023-09-07T06:06:41;12.90;99.90
10390;DHT22;5241;47.830;12.972;2023-09-07T06:09:07;13.00;99.90
10390;DHT22;5241;47.830;12.972;2023-09-07T06:11:32;13.10;99.90
10390;DHT22;5241;47.830;12.972;2023-09-07T06:13:58;13.30;99.90
10390;DHT22;5241;47.830;12.972;2023-09-07T06:16:24;13.40;99.90
10390;DHT22;5241;47.830;12.972;2023-09-07T06:18:49;13.50;99.90
10390;DHT22;5241;47.830;12.972;2023-09-07T06:21:15;13.70;99.90
10390;DHT22;5241;47.830;12.972;2023-09-07T06:23:40;13.90;99.90
10390;DHT22;5241;47.830;12.972;2023-09-07T06:26:06;14.10;99.90
10390;DHT22;5241;47.830;12.972;2023-09-07T06:28:31;14.10;99.90
10390;DHT22;5241;47.830;12.972;2023-09-07T06:30:57;14.30;99.90
10390;DHT22;5241;47.830;12.972;2023-09-07T06:33:22;14.30;99.90
10390;DHT22;5241;47.830;12.972;2023-09-07T06:35:48;14.40;99.90
10390;DHT22;5241;47.830;12.972;2023-09-07T06:38:14;14.50;99.90
10390;DHT22;5241;47.830;12.972;2023-09-07T06:40:39;14.60;99.90
10390;DHT22;5241;47.830;12.972;2023-09-07T06:43:05;14.60;99.90
10390;DHT22;5241;47.830;12.972;2023-09-07T06:45:36;14.70;99.90
10390;DHT22;5241;47.830;12.972;2023-09-07T06:48:03;14.80;99.90
10390;DHT22;5241;47.830;12.972;2023-09-07T06:50:28;15.00;99.90
10390;DHT22;5241;47.830;12.972;2023-09-07T06:52:54;15.10;99.90
10390;DHT22;5241;47.830;12.972;2023-09-07T06:55:20;15.30;99.90
10390;DHT22;5241;47.830;12.972;2023-09-07T06:57:45;15.30;99.90
10390;DHT22;5241;47.830;12.972;2023-09-07T07:00:11;15.50;99.90
10390;DHT22;5241;47.830;12.972;2023-09-07T07:02:37;15.60;99.90
10390;DHT22;5241;47.830;12.972;2023-09-07T07:05:03;15.60;99.90
10390;DHT22;5241;47.830;12.972;2023-09-07T07:07:29;15.80;99.90
10390;DHT22;5241;47.830;12.972;2023-09-07T07:09:54;16.00;99.90
10390;DHT22;5241;47.830;12.972;2023-09-07T07:12:20;16.10;99.90
10390;DHT22;5241;47.830;12.972;2023-09-07T07:14:46;16.10;99.90
10390;DHT22;5241;47.830;12.972;2023-09-07T07:17:12;16.30;99.90
10390;DHT22;5241;47.830;12.972;2023-09-07T07:19:37;16.50;99.90
10390;DHT22;5241;47.830;12.972;2023-09-07T07:22:03;16.50;99.90
10390;DHT22;5241;47.830;12.972;2023-09-07T07:24:29;16.60;99.90
10390;DHT22;5241;47.830;12.972;2023-09-07T07:26:54;16.70;99.90
10390;DHT22;5241;47.830;12.972;2023-09-07T07:29:20;16.70;99.90
10390;DHT22;5241;47.830;12.972;2023-09-07T07:31:45;16.90;99.90
10390;DHT22;5241;47.830;12.972;2023-09-07T07:34:12;17.00;99.90
10390;DHT22;5241;47.830;12.972;2023-09-07T07:36:38;17.10;99.90
10390;DHT22;5241;47.830;12.972;2023-09-07T07:39:04;17.30;99.90
10390;DHT22;5241;47.830;12.972;2023-09-07T07:41:29;17.50;99.90
10390;DHT22;5241;47.830;12.972;2023-09-07T07:43:55;17.90;99.90
10390;DHT22;5241;47.830;12.972;2023-09-07T07:46:21;18.30;99.90
10390;DHT22;5241;47.830;12.972;2023-09-07T07:48:46;18.70;99.90
10390;DHT22;5241;47.830;12.972;2023-09-07T07:51:12;19.70;99.90
10390;DHT22;5241;47.830;12.972;2023-09-07T07:53:37;20.50;99.90
10390;DHT22;5241;47.830;12.972;2023-09-07T07:56:03;21.10;99.90
10390;DHT22;5241;47.830;12.972;2023-09-07T07:58:29;21.70;99.90
10390;DHT22;5241;47.830;12.972;2023-09-07T08:00:54;21.60;99.90
10390;DHT22;5241;47.830;12.972;2023-09-07T08:03:23;21.50;99.90
10390;DHT22;5241;47.830;12.972;2023-09-07T08:05:49;22.10;99.90
10390;DHT22;5241;47.830;12.972;2023-09-07T08:08:14;22.50;99.90
10390;DHT22;5241;47.830;12.972;2023-09-07T08:10:40;22.70;99.90
10390;DHT22;5241;47.830;12.972;2023-09-07T08:13:07;22.60;99.90
10390;DHT22;5241;47.830;12.972;2023-09-07T08:15:33;22.70;99.90
10390;DHT22;5241;47.830;12.972;2023-09-07T08:17:59;22.80;99.90
10390;DHT22;5241;47.830;12.972;2023-09-07T08:20:27;22.90;99.90
10390;DHT22;5241;47.830;12.972;2023-09-07T08:22:55;23.20;99.90
10390;DHT22;5241;47.830;12.972;2023-09-07T08:25:20;23.40;99.90
10390;DHT22;5241;47.830;12.972;2023-09-07T08:27:46;23.30;99.90
10390;DHT22;5241;47.830;12.972;2023-09-07T08:30:16;23.20;99.90
10390;DHT22;5241;47.830;12.972;2023-09-07T08:32:46;23.70;99.90
10390;DHT22;5241;47.830;12.972;2023-09-07T08:35:11;24.00;99.90
10390;DHT22;5241;47.830;12.972;2023-09-07T08:37:42;24.10;99.90
10390;DHT22;5241;47.830;12.972;2023-09-07T08:40:08;23.70;99.90
10390;DHT22;5241;47.830;12.972;2023-09-07T08:42:37;24.40;99.90
10390;DHT22;5241;47.830;12.972;2023-09-07T08:45:04;24.40;99.90
10390;DHT22;5241;47.830;12.972;2023-09-07T08:47:36;24.80;99.90
10390;DHT22;5241;47.830;12.972;2023-09-07T08:50:03;24.60;99.70
10390;DHT22;5241;47.830;12.972;2023-09-07T08:52:29;24.50;99.90
10390;DHT22;5241;47.830;12.972;2023-09-07T08:54:56;24.20;98.70
10390;DHT22;5241;47.830;12.972;2023-09-07T08:57:24;23.80;99.90
10390;DHT22;5241;47.830;12.972;2023-09-07T08:59:50;23.50;99.90
10390;DHT22;5241;47.830;12.972;2023-09-07T09:02:16;24.20;99.90
10390;DHT22;5241;47.830;12.972;2023-09-07T09:04:42;25.00;99.80
10390;DHT22;5241;47.830;12.972;2023-09-07T09:07:07;24.90;98.20
10390;DHT22;5241;47.830;12.972;2023-09-07T09:09:33;24.30;99.50
10390;DHT22;5241;47.830;12.972;2023-09-07T09:12:09;24.20;99.10
10390;DHT22;5241;47.830;12.972;2023-09-07T09:14:35;24.50;98.90
10390;DHT22;5241;47.830;12.972;2023-09-07T09:17:00;24.80;98.70
10390;DHT22;5241;47.830;12.972;2023-09-07T09:19:35;24.80;97.50
10390;DHT22;5241;47.830;12.972;2023-09-07T09:22:01;25.20;96.50
10390;DHT22;5241;47.830;12.972;2023-09-07T09:24:32;25.70;95.70
10390;DHT22;5241;47.830;12.972;2023-09-07T09:26:57;25.80;94.50
10390;DHT22;5241;47.830;12.972;2023-09-07T09:29:23;24.90;96.70
10390;DHT22;5241;47.830;12.972;2023-09-07T09:31:48;25.30;95.90
10390;DHT22;5241;47.830;12.972;2023-09-07T09:34:15;25.10;96.50
10390;DHT22;5241;47.830;12.972;2023-09-07T09:36:42;26.10;95.00
10390;DHT22;5241;47.830;12.972;2023-09-07T09:39:08;26.20;95.10
10390;DHT22;5241;47.830;12.972;2023-09-07T09:41:35;25.90;94.40
10390;DHT22;5241;47.830;12.972;2023-09-07T09:44:05;25.50;95.40
10390;DHT22;5241;47.830;12.972;2023-09-07T09:46:31;26.80;93.60
10390;DHT22;5241;47.830;12.972;2023-09-07T09:48:57;27.20;91.70
10390;DHT22;5241;47.830;12.972;2023-09-07T09:51:24;27.30;92.60
10390;DHT22;5241;47.830;12.972;2023-09-07T09:53:51;27.00;91.00
10390;DHT22;5241;47.830;12.972;2023-09-07T09:56:19;26.20;93.10
10390;DHT22;5241;47.830;12.972;2023-09-07T09:58:45;26.40;92.30
10390;DHT22;5241;47.830;12.972;2023-09-07T10:01:12;26.30;92.20
10390;DHT22;5241;47.830;12.972;2023-09-07T10:03:46;26.10;93.50
10390;DHT22;5241;47.830;12.972;2023-09-07T10:06:19;26.30;93.10
10390;DHT22;5241;47.830;12.972;2023-09-07T10:09:05;26.00;93.60
10390;DHT22;5241;47.830;12.972;2023-09-07T10:11:38;26.60;91.30
10390;DHT22;5241;47.830;12.972;2023-09-07T10:14:06;26.80;91.10
10390;DHT22;5241;47.830;12.972;2023-09-07T10:16:45;26.40;91.40
10390;DHT22;5241;47.830;12.972;2023-09-07T10:19:19;26.20;90.60
10390;DHT22;5241;47.830;12.972;2023-09-07T10:21:45;27.20;92.70
10390;DHT22;5241;47.830;12.972;2023-09-07T10:24:11;27.30;91.30
10390;DHT22;5241;47.830;12.972;2023-09-07T10:26:36;26.50;90.50
10390;DHT22;5241;47.830;12.972;2023-09-07T10:29:02;26.50;92.40
10390;DHT22;5241;47.830;12.972;2023-09-07T10:31:29;26.80;91.70
10390;DHT22;5241;47.830;12.972;2023-09-07T10:34:10;27.00;91.80
10390;DHT22;5241;47.830;12.972;2023-09-07T10:36:37;27.30;90.90
10390;DHT22;5241;47.830;12.972;2023-09-07T10:39:03;26.90;91.50
10390;DHT22;5241;47.830;12.972;2023-09-07T10:41:40;26.80;91.70
10390;DHT22;5241;47.830;12.972;2023-09-07T10:44:07;26.80;92.10
10390;DHT22;5241;47.830;12.972;2023-09-07T10:46:32;27.50;91.40
10390;DHT22;5241;47.830;12.972;2023-09-07T10:48:58;28.80;89.90
10390;DHT22;5241;47.830;12.972;2023-09-07T10:51:24;28.70;90.60
10390;DHT22;5241;47.830;12.972;2023-09-07T10:53:49;28.90;90.10
10390;DHT22;5241;47.830;12.972;2023-09-07T10:56:15;28.70;88.60
10390;DHT22;5241;47.830;12.972;2023-09-07T10:58:41;28.10;88.30
10390;DHT22;5241;47.830;12.972;2023-09-07T11:01:08;28.50;88.10
10390;DHT22;5241;47.830;12.972;2023-09-07T11:03:34;29.00;86.90
10390;DHT22;5241;47.830;12.972;2023-09-07T11:06:10;29.70;86.60
10390;DHT22;5241;47.830;12.972;2023-09-07T11:08:36;29.60;88.50
10390;DHT22;5241;47.830;12.972;2023-09-07T11:11:03;29.10;87.00
10390;DHT22;5241;47.830;12.972;2023-09-07T11:13:29;28.10;89.20
10390;DHT22;5241;47.830;12.972;2023-09-07T11:15:56;28.10;90.50
10390;DHT22;5241;47.830;12.972;2023-09-07T11:18:23;28.30;90.80
10390;DHT22;5241;47.830;12.972;2023-09-07T11:20:50;28.90;89.80
10390;DHT22;5241;47.830;12.972;2023-09-07T11:23:17;29.10;85.90
10390;DHT22;5241;47.830;12.972;2023-09-07T11:25:43;29.70;83.40
10390;DHT22;5241;47.830;12.972;2023-09-07T11:28:10;29.80;86.00
10390;DHT22;5241;47.830;12.972;2023-09-07T11:30:51;30.20;86.50
10390;DHT22;5241;47.830;12.972;2023-09-07T11:33:18;30.80;81.20
10390;DHT22;5241;47.830;12.972;2023-09-07T11:35:43;30.50;82.70
10390;DHT22;5241;47.830;12.972;2023-09-07T11:38:13;29.90;83.10
10390;DHT22;5241;47.830;12.972;2023-09-07T11:40:38;29.90;86.00
10390;DHT22;5241;47.830;12.972;2023-09-07T11:43:04;30.50;82.80
10390;DHT22;5241;47.830;12.972;2023-09-07T11:45:29;30.10;83.10
10390;DHT22;5241;47.830;12.972;2023-09-07T11:47:55;30.50;82.90
10390;DHT22;5241;47.830;12.972;2023-09-07T11:50:23;31.10;81.40
10390;DHT22;5241;47.830;12.972;2023-09-07T11:52:50;30.40;81.40
10390;DHT22;5241;47.830;12.972;2023-09-07T11:55:16;29.90;82.70
10390;DHT22;5241;47.830;12.972;2023-09-07T11:57:41;30.30;81.20
10390;DHT22;5241;47.830;12.972;2023-09-07T12:00:08;31.00;80.20
10390;DHT22;5241;47.830;12.972;2023-09-07T12:02:38;30.90;79.50
10390;DHT22;5241;47.830;12.972;2023-09-07T12:05:05;31.00;79.20
10390;DHT22;5241;47.830;12.972;2023-09-07T12:07:32;31.20;77.00
10390;DHT22;5241;47.830;12.972;2023-09-07T12:09:58;31.40;75.80
10390;DHT22;5241;47.830;12.972;2023-09-07T12:12:23;31.50;75.80
10390;DHT22;5241;47.830;12.972;2023-09-07T12:14:49;31.60;74.50
10390;DHT22;5241;47.830;12.972;2023-09-07T12:17:14;32.20;72.90
10390;DHT22;5241;47.830;12.972;2023-09-07T12:19:40;31.70;76.50
10390;DHT22;5241;47.830;12.972;2023-09-07T12:22:07;31.60;74.70
10390;DHT22;5241;47.830;12.972;2023-09-07T12:24:33;31.30;74.00
10390;DHT22;5241;47.830;12.972;2023-09-07T12:26:59;31.50;73.80
10390;DHT22;5241;47.830;12.972;2023-09-07T12:29:25;31.50;73.40
10390;DHT22;5241;47.830;12.972;2023-09-07T12:31:51;31.30;74.00
10390;DHT22;5241;47.830;12.972;2023-09-07T12:34:16;31.10;74.70
10390;DHT22;5241;47.830;12.972;2023-09-07T12:36:42;31.20;75.20
10390;DHT22;5241;47.830;12.972;2023-09-07T12:39:07;31.30;74.40
10390;DHT22;5241;47.830;12.972;2023-09-07T12:41:33;32.20;71.30
10390;DHT22;5241;47.830;12.972;2023-09-07T12:43:59;31.90;71.90
10390;DHT22;5241;47.830;12.972;2023-09-07T12:46:24;32.30;71.80
10390;DHT22;5241;47.830;12.972;2023-09-07T12:48:50;32.00;70.70
10390;DHT22;5241;47.830;12.972;2023-09-07T12:51:15;31.80;72.90
10390;DHT22;5241;47.830;12.972;2023-09-07T12:53:41;32.40;70.50
10390;DHT22;5241;47.830;12.972;2023-09-07T12:56:07;32.40;70.50
10390;DHT22;5241;47.830;12.972;2023-09-07T12:58:32;31.60;70.00
10390;DHT22;5241;47.830;12.972;2023-09-07T13:00:58;31.80;70.50
10390;DHT22;5241;47.830;12.972;2023-09-07T13:03:23;31.70;70.80
10390;DHT22;5241;47.830;12.972;2023-09-07T13:05:49;32.10;70.00
10390;DHT22;5241;47.830;12.972;2023-09-07T13:08:15;32.40;70.20
10390;DHT22;5241;47.830;12.972;2023-09-07T13:10:40;33.20;66.40
10390;DHT22;5241;47.830;12.972;2023-09-07T13:13:06;32.60;66.80
10390;DHT22;5241;47.830;12.972;2023-09-07T13:15:33;33.00;67.30
10390;DHT22;5241;47.830;12.972;2023-09-07T13:17:58;32.50;67.00
10390;DHT22;5241;47.830;12.972;2023-09-07T13:20:24;32.30;67.90
10390;DHT22;5241;47.830;12.972;2023-09-07T13:22:49;32.20;66.90
10390;DHT22;5241;47.830;12.972;2023-09-07T13:25:15;32.20;67.30
10390;DHT22;5241;47.830;12.972;2023-09-07T13:27:41;32.50;67.40
10390;DHT22;5241;47.830;12.972;2023-09-07T13:30:06;33.10;65.70
10390;DHT22;5241;47.830;12.972;2023-09-07T13:32:37;33.10;65.20
10390;DHT22;5241;47.830;12.972;2023-09-07T13:35:04;33.50;65.40
10390;DHT22;5241;47.830;12.972;2023-09-07T13:37:29;33.60;64.80
10390;DHT22;5241;47.830;12.972;2023-09-07T13:39:55;33.20;63.60
10390;DHT22;5241;47.830;12.972;2023-09-07T13:42:21;33.10;65.10
10390;DHT22;5241;47.830;12.972;2023-09-07T13:44:46;33.30;63.60
10390;DHT22;5241;47.830;12.972;2023-09-07T13:47:12;33.10;64.60
10390;DHT22;5241;47.830;12.972;2023-09-07T13:49:38;33.00;64.90
10390;DHT22;5241;47.830;12.972;2023-09-07T13:52:04;32.30;64.80
10390;DHT22;5241;47.830;12.972;2023-09-07T13:54:30;32.90;66.20
10390;DHT22;5241;47.830;12.972;2023-09-07T13:56:55;32.90;63.90
10390;DHT22;5241;47.830;12.972;2023-09-07T13:59:21;33.30;62.90
10390;DHT22;5241;47.830;12.972;2023-09-07T14:01:47;33.10;64.40
10390;DHT22;5241;47.830;12.972;2023-09-07T14:04:13;33.00;64.50
10390;DHT22;5241;47.830;12.972;2023-09-07T14:06:39;32.50;65.70
10390;DHT22;5241;47.830;12.972;2023-09-07T14:09:05;33.10;65.90
10390;DHT22;5241;47.830;12.972;2023-09-07T14:11:32;33.40;62.80
10390;DHT22;5241;47.830;12.972;2023-09-07T14:13:58;33.10;64.70
10390;DHT22;5241;47.830;12.972;2023-09-07T14:16:24;33.40;62.90
10390;DHT22;5241;47.830;12.972;2023-09-07T14:18:50;33.60;63.80
10390;DHT22;5241;47.830;12.972;2023-09-07T14:21:16;32.90;63.50
10390;DHT22;5241;47.830;12.972;2023-09-07T14:23:42;32.60;65.00
10390;DHT22;5241;47.830;12.972;2023-09-07T14:26:08;33.10;63.60
10390;DHT22;5241;47.830;12.972;2023-09-07T14:28:35;32.80;63.30
10390;DHT22;5241;47.830;12.972;2023-09-07T14:31:00;33.10;63.80
10390;DHT22;5241;47.830;12.972;2023-09-07T14:33:29;32.70;63.60
10390;DHT22;5241;47.830;12.972;2023-09-07T14:35:55;33.20;62.80
10390;DHT22;5241;47.830;12.972;2023-09-07T14:38:21;33.40;62.70
10390;DHT22;5241;47.830;12.972;2023-09-07T14:40:47;33.50;61.90
10390;DHT22;5241;47.830;12.972;2023-09-07T14:43:14;33.80;62.40
10390;DHT22;5241;47.830;12.972;2023-09-07T14:45:40;33.20;61.60
10390;DHT22;5241;47.830;12.972;2023-09-07T14:48:06;33.40;63.20
10390;DHT22;5241;47.830;12.972;2023-09-07T14:50:31;33.30;61.60
10390;DHT22;5241;47.830;12.972;2023-09-07T14:52:57;33.00;61.60
10390;DHT22;5241;47.830;12.972;2023-09-07T14:55:22;33.40;62.60
10390;DHT22;5241;47.830;12.972;2023-09-07T14:57:48;33.20;61.10
10390;DHT22;5241;47.830;12.972;2023-09-07T15:00:14;33.00;62.10
10390;DHT22;5241;47.830;12.972;2023-09-07T15:02:39;32.60;62.20
10390;DHT22;5241;47.830;12.972;2023-09-07T15:05:05;32.30;63.90
10390;DHT22;5241;47.830;12.972;2023-09-07T15:07:30;31.60;65.80
10390;DHT22;5241;47.830;12.972;2023-09-07T15:09:56;32.20;64.20
10390;DHT22;5241;47.830;12.972;2023-09-07T15:12:22;31.60;65.40
10390;DHT22;5241;47.830;12.972;2023-09-07T15:14:47;31.30;65.60
10390;DHT22;5241;47.830;12.972;2023-09-07T15:17:15;30.90;67.50
10390;DHT22;5241;47.830;12.972;2023-09-07T15:19:41;29.90;69.90
10390;DHT22;5241;47.830;12.972;2023-09-07T15:22:07;28.90;72.30
10390;DHT22;5241;47.830;12.972;2023-09-07T15:24:33;27.60;76.70